createdAt,value
2022-12-18T00:01:20.930Z,55.71
2022-12-18T00:03:48.486Z,55.81
2022-12-18T00:06:16.027Z,55.80
2022-12-18T00:08:44.557Z,55.92
2022-12-18T00:11:20.549Z,56.05
2022-12-18T00:13:48.011Z,56.01
2022-12-18T00:16:21.402Z,55.94
2022-12-18T00:18:53.794Z,55.85
2022-12-18T00:21:21.482Z,55.91
2022-12-18T00:23:50.247Z,55.88
2022-12-18T00:26:20.968Z,55.94
2022-12-18T00:28:50.358Z,55.95
2022-12-18T00:31:20.229Z,55.87
2022-12-18T00:33:47.561Z,55.76
2022-12-18T00:36:20.447Z,55.87
2022-12-18T00:38:48.691Z,55.96
2022-12-18T00:41:37.904Z,55.84
2022-12-18T00:44:06.637Z,55.98
2022-12-18T00:46:33.656Z,55.80
2022-12-18T00:49:00.749Z,55.98
2022-12-18T00:51:27.884Z,55.78
2022-12-18T00:53:55.384Z,56.04
2022-12-18T00:56:22.590Z,55.81
2022-12-18T00:58:49.963Z,56.04
2022-12-18T01:01:17.745Z,56.13
2022-12-18T01:03:46.389Z,56.12
2022-12-18T01:06:15.192Z,56.12
2022-12-18T01:08:42.229Z,56.03
2022-12-18T01:11:15.858Z,56.01
2022-12-18T01:13:43.407Z,56.08
2022-12-18T01:16:13.043Z,56.03
2022-12-18T01:18:40.180Z,55.93
2022-12-18T01:21:09.056Z,56.05
2022-12-18T01:23:38.447Z,56.03
2022-12-18T01:26:13.827Z,55.99
2022-12-18T01:28:41.255Z,56.00
2022-12-18T01:31:18.156Z,55.83
2022-12-18T01:33:46.082Z,55.83
2022-12-18T01:36:35.408Z,55.77
2022-12-18T01:39:08.667Z,55.71
2022-12-18T01:41:55.435Z,56.04
2022-12-18T01:44:47.388Z,56.26
2022-12-18T01:47:26.582Z,55.96
2022-12-18T01:49:54.859Z,55.95
2022-12-18T01:52:23.200Z,56.04
2022-12-18T01:54:52.656Z,56.03
2022-12-18T01:57:20.284Z,56.13
2022-12-18T01:59:51.979Z,56.08
2022-12-18T02:02:19.066Z,56.31
2022-12-18T02:04:49.529Z,56.12
2022-12-18T02:07:35.903Z,56.13
2022-12-18T02:10:27.393Z,56.02
2022-12-18T02:13:11.565Z,56.13
2022-12-18T02:15:51.197Z,56.40
2022-12-18T02:18:24.710Z,56.38
2022-12-18T02:21:00.737Z,56.25
2022-12-18T02:24:04.444Z,56.36
2022-12-18T02:26:39.048Z,56.18
2022-12-18T02:29:12.875Z,56.38
2022-12-18T02:31:45.247Z,56.47
2022-12-18T02:34:13.651Z,56.39
2022-12-18T02:36:44.817Z,56.27
2022-12-18T02:39:13.944Z,56.16
2022-12-18T02:41:49.517Z,56.38
2022-12-18T02:44:16.538Z,56.26
2022-12-18T02:46:47.566Z,56.26
2022-12-18T02:49:45.292Z,56.10
2022-12-18T02:52:42.828Z,56.18
2022-12-18T02:55:14.607Z,56.18
2022-12-18T02:58:07.812Z,56.28
2022-12-18T03:00:47.786Z,56.36
2022-12-18T03:03:26.000Z,56.24
2022-12-18T03:06:05.773Z,56.39
2022-12-18T03:08:38.333Z,56.13
2022-12-18T03:11:09.903Z,56.35
2022-12-18T03:13:51.942Z,56.21
2022-12-18T03:16:25.579Z,56.17
2022-12-18T03:18:58.984Z,56.15
2022-12-18T03:21:40.163Z,56.18
2022-12-18T03:24:10.498Z,56.12
2022-12-18T03:26:42.324Z,56.25
2022-12-18T03:29:14.664Z,56.36
2022-12-18T03:31:46.496Z,56.18
2022-12-18T03:34:27.968Z,56.26
2022-12-18T03:36:58.242Z,56.28
2022-12-18T03:39:25.997Z,56.31
2022-12-18T03:42:15.680Z,56.33
2022-12-18T03:45:10.840Z,56.31
2022-12-18T03:47:57.548Z,56.33
2022-12-18T03:50:50.561Z,56.31
2022-12-18T03:53:20.236Z,56.28
2022-12-18T03:55:50.882Z,56.30
2022-12-18T03:58:23.845Z,56.14
2022-12-18T04:01:03.262Z,56.24
2022-12-18T04:03:33.425Z,56.24
2022-12-18T04:06:02.579Z,56.25
2022-12-18T04:08:30.826Z,56.52
2022-12-18T04:11:05.365Z,56.30
2022-12-18T04:13:37.141Z,56.27
2022-12-18T04:16:08.229Z,56.40
2022-12-18T04:18:35.938Z,56.25
2022-12-18T04:21:03.578Z,56.28
2022-12-18T04:23:30.570Z,56.34
2022-12-18T04:25:59.619Z,56.49
2022-12-18T04:28:47.262Z,56.35
2022-12-18T04:31:15.948Z,56.26
2022-12-18T04:33:43.045Z,56.25
2022-12-18T04:36:10.789Z,56.12
2022-12-18T04:38:38.312Z,56.28
2022-12-18T04:41:09.271Z,56.17
2022-12-18T04:43:37.888Z,56.29
2022-12-18T04:46:06.979Z,56.52
2022-12-18T04:48:34.455Z,56.19
2022-12-18T04:51:03.062Z,56.35
2022-12-18T04:53:30.069Z,56.35
2022-12-18T04:56:10.211Z,56.32
2022-12-18T04:58:38.656Z,56.46
2022-12-18T05:01:06.408Z,56.35
2022-12-18T05:03:33.255Z,56.25
2022-12-18T05:06:00.738Z,56.27
2022-12-18T05:08:34.036Z,56.37
2022-12-18T05:11:10.243Z,56.38
2022-12-18T05:13:39.413Z,56.58
2022-12-18T05:16:07.878Z,56.47
2022-12-18T05:18:36.119Z,56.33
2022-12-18T05:21:07.363Z,56.51
2022-12-18T05:23:38.477Z,56.58
2022-12-18T05:26:10.434Z,56.35
2022-12-18T05:28:38.041Z,56.50
2022-12-18T05:31:06.650Z,56.38
2022-12-18T05:33:35.593Z,56.34
2022-12-18T05:36:09.995Z,56.40
2022-12-18T05:38:39.779Z,56.41
2022-12-18T05:41:16.540Z,56.26
2022-12-18T05:43:46.986Z,56.36
2022-12-18T05:46:21.824Z,56.26
2022-12-18T05:48:52.017Z,56.35
2022-12-18T05:51:22.477Z,56.16
2022-12-18T05:53:54.836Z,56.41
2022-12-18T05:56:23.609Z,56.50
2022-12-18T05:58:56.145Z,56.34
2022-12-18T06:01:30.150Z,56.35
2022-12-18T06:04:04.161Z,56.46
2022-12-18T06:06:34.050Z,56.43
2022-12-18T06:09:02.440Z,56.28
2022-12-18T06:11:30.099Z,56.10
2022-12-18T06:14:00.270Z,56.26
2022-12-18T06:16:30.103Z,56.21
2022-12-18T06:19:01.093Z,56.35
2022-12-18T06:21:32.015Z,56.33
2022-12-18T06:24:02.254Z,56.32
2022-12-18T06:26:36.825Z,56.46
2022-12-18T06:29:05.820Z,56.36
2022-12-18T06:31:35.097Z,56.40
2022-12-18T06:34:06.842Z,56.29
2022-12-18T06:36:34.459Z,56.37
2022-12-18T06:39:03.766Z,56.33
2022-12-18T06:41:34.296Z,56.46
2022-12-18T06:44:04.278Z,56.37
2022-12-18T06:46:35.656Z,56.52
2022-12-18T06:49:14.724Z,56.45
2022-12-18T06:51:42.055Z,56.41
2022-12-18T06:54:11.615Z,56.56
2022-12-18T06:56:38.606Z,56.54
2022-12-18T06:59:07.349Z,56.40
2022-12-18T07:01:34.549Z,56.39
2022-12-18T07:04:01.755Z,56.43
2022-12-18T07:06:28.748Z,56.58
2022-12-18T07:08:56.255Z,56.58
2022-12-18T07:11:25.345Z,56.71
2022-12-18T07:13:53.684Z,56.45
2022-12-18T07:16:25.345Z,56.48
2022-12-18T07:18:55.004Z,56.48
2022-12-18T07:21:23.269Z,56.61
2022-12-18T07:23:51.179Z,56.67
2022-12-18T07:26:22.378Z,56.57
2022-12-18T07:28:53.979Z,56.39
2022-12-18T07:31:23.540Z,56.54
2022-12-18T07:33:53.826Z,56.73
2022-12-18T07:36:21.169Z,56.77
2022-12-18T07:38:50.644Z,56.58
2022-12-18T07:41:19.873Z,56.63
2022-12-18T07:43:48.028Z,56.65
2022-12-18T07:46:17.251Z,56.50
2022-12-18T07:48:49.308Z,56.74
2022-12-18T07:51:19.679Z,56.71
2022-12-18T07:53:49.759Z,56.72
2022-12-18T07:56:29.055Z,56.87
2022-12-18T07:58:58.253Z,56.87
2022-12-18T08:01:25.951Z,57.01
2022-12-18T08:03:56.084Z,56.97
2022-12-18T08:06:24.350Z,56.94
2022-12-18T08:08:56.587Z,57.02
2022-12-18T08:11:25.536Z,56.93
2022-12-18T08:13:54.118Z,56.97
2022-12-18T08:16:22.455Z,57.22
2022-12-18T08:18:49.892Z,57.07
2022-12-18T08:21:24.204Z,57.05
2022-12-18T08:23:52.277Z,57.15
2022-12-18T08:26:19.895Z,57.27
2022-12-18T08:28:48.493Z,57.45
2022-12-18T08:31:17.118Z,57.30
2022-12-18T08:33:51.383Z,57.30
2022-12-18T08:36:22.224Z,57.48
2022-12-18T08:38:56.421Z,57.59
2022-12-18T08:41:35.231Z,57.39
2022-12-18T08:44:21.019Z,57.31
2022-12-18T08:46:47.928Z,57.39
2022-12-18T08:49:15.035Z,57.49
2022-12-18T08:51:44.979Z,57.64
2022-12-18T08:54:15.243Z,57.51
2022-12-18T08:56:43.213Z,57.54
2022-12-18T08:59:15.817Z,57.58
2022-12-18T09:01:47.975Z,57.68
2022-12-18T09:04:15.712Z,57.75
2022-12-18T09:06:43.788Z,57.70
2022-12-18T09:09:17.225Z,57.59
2022-12-18T09:11:51.979Z,57.82
2022-12-18T09:14:18.910Z,57.80
2022-12-18T09:16:45.916Z,57.72
2022-12-18T09:19:13.011Z,57.92
2022-12-18T09:21:47.808Z,57.92
2022-12-18T09:24:17.483Z,57.94
2022-12-18T09:26:47.786Z,57.97
2022-12-18T09:29:19.174Z,58.10
2022-12-18T09:31:46.837Z,58.11
2022-12-18T09:34:13.864Z,58.21
2022-12-18T09:36:40.769Z,58.35
2022-12-18T09:39:08.955Z,58.17
2022-12-18T09:41:44.324Z,58.32
2022-12-18T09:44:27.891Z,58.50
2022-12-18T09:47:06.723Z,58.42
2022-12-18T09:49:44.614Z,58.48
2022-12-18T09:52:29.455Z,58.48
2022-12-18T09:55:03.362Z,58.39
2022-12-18T09:57:33.847Z,58.65
2022-12-18T10:00:12.710Z,58.71
2022-12-18T10:02:39.788Z,58.77
2022-12-18T10:05:15.582Z,59.16
2022-12-18T10:07:54.459Z,59.34
2022-12-18T10:10:49.942Z,59.08
2022-12-18T10:13:38.831Z,59.29
2022-12-18T10:16:43.681Z,59.27
2022-12-18T10:19:35.666Z,59.53
2022-12-18T10:22:15.304Z,59.54
2022-12-18T10:25:09.190Z,59.73
2022-12-18T10:27:39.234Z,59.72
2022-12-18T10:30:16.128Z,59.88
2022-12-18T10:32:44.165Z,59.76
2022-12-18T10:35:25.552Z,59.99
2022-12-18T10:38:19.476Z,59.87
2022-12-18T10:41:01.324Z,60.07
2022-12-18T10:43:39.633Z,60.05
2022-12-18T10:46:10.669Z,60.21
2022-12-18T10:48:56.614Z,60.31
2022-12-18T10:51:33.797Z,60.52
2022-12-18T10:54:06.423Z,61.22
2022-12-18T10:56:36.981Z,62.11
2022-12-18T10:59:07.752Z,63.29
2022-12-18T11:01:59.285Z,64.09
2022-12-18T11:04:34.449Z,65.40
2022-12-18T11:07:10.894Z,66.69
2022-12-18T11:09:42.648Z,68.20
2022-12-18T11:12:23.735Z,69.35
2022-12-18T11:14:57.455Z,69.75
2022-12-18T11:17:33.117Z,69.69
2022-12-18T11:20:10.498Z,69.51
2022-12-18T11:22:39.454Z,68.56
2022-12-18T11:25:32.404Z,67.43
2022-12-18T11:28:05.876Z,68.06
2022-12-18T11:30:37.885Z,68.84
2022-12-18T11:33:11.476Z,69.32
2022-12-18T11:36:04.956Z,69.66
2022-12-18T11:38:43.713Z,70.33
2022-12-18T11:41:54.752Z,70.04
2022-12-18T11:44:33.976Z,69.95
2022-12-18T11:47:23.451Z,69.38
2022-12-18T11:49:51.827Z,69.41
2022-12-18T11:52:41.577Z,68.99
2022-12-18T11:55:18.890Z,69.04
2022-12-18T11:58:31.320Z,67.68
2022-12-18T12:01:22.130Z,66.94
2022-12-18T12:04:09.463Z,64.76
2022-12-18T12:06:52.037Z,64.13
2022-12-18T12:09:33.335Z,62.88
2022-12-18T12:12:19.123Z,63.18
2022-12-18T12:15:12.885Z,62.99
2022-12-18T12:18:11.286Z,62.41
2022-12-18T12:21:11.346Z,61.50
2022-12-18T12:23:58.126Z,60.89
2022-12-18T12:26:44.222Z,60.45
2022-12-18T12:29:28.567Z,59.92
2022-12-18T12:31:58.591Z,59.89
2022-12-18T12:34:45.143Z,59.30
2022-12-18T12:37:57.020Z,59.10
2022-12-18T12:41:00.529Z,58.95
2022-12-18T12:43:50.561Z,58.69
2022-12-18T12:46:22.323Z,58.31
2022-12-18T12:48:56.396Z,58.00
2022-12-18T12:51:29.963Z,57.88
2022-12-18T12:54:01.303Z,57.72
2022-12-18T12:57:04.304Z,57.57
2022-12-18T12:59:50.686Z,57.50
2022-12-18T13:02:39.369Z,57.55
2022-12-18T13:05:40.902Z,57.21
2022-12-18T13:08:12.172Z,57.13
2022-12-18T13:10:44.390Z,57.06
2022-12-18T13:13:23.752Z,57.01
2022-12-18T13:16:07.707Z,56.82
2022-12-18T13:18:36.764Z,56.85
2022-12-18T13:21:19.209Z,56.33
2022-12-18T13:23:46.781Z,56.52
2022-12-18T13:26:17.519Z,56.18
2022-12-18T13:28:56.594Z,56.15
2022-12-18T13:31:44.532Z,55.89
2022-12-18T13:34:29.499Z,55.71
2022-12-18T13:37:19.595Z,55.54
2022-12-18T13:39:49.040Z,55.60
2022-12-18T13:42:36.315Z,55.39
2022-12-18T13:45:40.133Z,55.10
2022-12-18T13:48:22.322Z,54.99
2022-12-18T13:50:54.483Z,54.99
2022-12-18T13:53:26.146Z,54.98
2022-12-18T13:55:55.991Z,54.80
2022-12-18T13:58:24.291Z,54.78
2022-12-18T14:00:52.347Z,54.63
2022-12-18T14:03:27.412Z,54.65
2022-12-18T14:06:02.582Z,54.49
2022-12-18T14:08:42.826Z,54.38
2022-12-18T14:11:26.681Z,54.47
2022-12-18T14:13:55.857Z,54.44
2022-12-18T14:16:28.572Z,54.57
2022-12-18T14:19:08.444Z,54.49
2022-12-18T14:22:02.492Z,54.47
2022-12-18T14:24:32.614Z,54.40
2022-12-18T14:27:20.778Z,54.55
2022-12-18T14:29:48.104Z,54.40
2022-12-18T14:32:19.552Z,54.37
2022-12-18T14:34:50.183Z,54.34
2022-12-18T14:37:23.922Z,54.58
2022-12-18T14:40:10.984Z,54.57
2022-12-18T14:42:39.588Z,54.64
2022-12-18T14:45:47.244Z,54.77
2022-12-18T14:48:23.400Z,54.64
2022-12-18T14:51:06.775Z,54.80
2022-12-18T14:53:52.186Z,54.73
2022-12-18T14:56:31.882Z,54.66
2022-12-18T14:59:24.189Z,54.80
2022-12-18T15:02:02.471Z,54.61
2022-12-18T15:04:38.491Z,54.70
2022-12-18T15:07:06.253Z,54.86
2022-12-18T15:09:38.236Z,54.83
2022-12-18T15:12:27.280Z,54.90
2022-12-18T15:14:54.895Z,55.04
2022-12-18T15:17:27.650Z,55.11
2022-12-18T15:20:11.766Z,54.99
2022-12-18T15:22:42.858Z,55.10
2022-12-18T15:25:38.584Z,55.09
2022-12-18T15:28:21.647Z,55.11
2022-12-18T15:31:01.070Z,55.32
2022-12-18T15:33:32.784Z,55.44
2022-12-18T15:36:02.382Z,55.43
2022-12-18T15:38:30.652Z,55.54
2022-12-18T15:40:58.118Z,55.56
2022-12-18T15:43:39.272Z,55.63
2022-12-18T15:46:18.878Z,55.78
2022-12-18T15:48:52.815Z,55.85
2022-12-18T15:51:27.034Z,55.97
2022-12-18T15:53:58.632Z,56.09
2022-12-18T15:56:45.790Z,56.06
2022-12-18T15:59:21.604Z,56.13
2022-12-18T16:01:52.031Z,56.01
2022-12-18T16:04:22.233Z,56.11
2022-12-18T16:09:43.832Z,56.28
2022-12-18T16:12:17.941Z,56.19
2022-12-18T16:14:45.788Z,56.27
2022-12-18T16:17:14.212Z,56.30
2022-12-18T16:19:41.398Z,56.41
2022-12-18T16:22:23.748Z,56.46
2022-12-18T16:24:52.537Z,56.54
2022-12-18T16:27:20.094Z,56.46
2022-12-18T16:29:48.374Z,56.59
2022-12-18T16:32:35.468Z,56.52
2022-12-18T16:35:02.533Z,56.56
2022-12-18T16:37:30.166Z,56.75
2022-12-18T16:39:58.265Z,56.79
2022-12-18T16:42:25.445Z,56.82
2022-12-18T16:44:53.943Z,56.86
2022-12-18T16:47:21.660Z,56.87
2022-12-18T16:49:51.888Z,56.93
2022-12-18T16:52:21.039Z,57.01
2022-12-18T16:54:51.666Z,56.98
2022-12-18T16:57:21.076Z,57.02
2022-12-18T16:59:51.185Z,57.17
2022-12-18T17:02:25.606Z,57.11
2022-12-18T17:05:09.632Z,57.12
2022-12-18T17:07:38.866Z,57.18
2022-12-18T17:10:06.294Z,57.15
2022-12-18T17:12:33.176Z,57.19
2022-12-18T17:15:00.119Z,57.32
2022-12-18T17:17:27.082Z,57.27
2022-12-18T17:19:54.031Z,57.45
2022-12-18T17:22:23.489Z,57.51
2022-12-18T17:24:50.877Z,57.56
2022-12-18T17:27:17.822Z,57.54
2022-12-18T17:29:48.024Z,57.56
2022-12-18T17:32:17.729Z,57.70
2022-12-18T17:34:44.708Z,57.72
2022-12-18T17:37:11.589Z,57.80
2022-12-18T17:39:38.671Z,57.89
2022-12-18T17:42:05.675Z,57.78
2022-12-18T17:44:35.804Z,57.93
2022-12-18T17:47:03.140Z,57.91
2022-12-18T17:49:31.167Z,57.97
2022-12-18T17:51:58.056Z,58.00
2022-12-18T17:54:25.127Z,57.97
2022-12-18T17:56:51.990Z,57.98
2022-12-18T17:59:18.956Z,58.07
2022-12-18T18:01:46.576Z,58.14
2022-12-18T18:04:14.960Z,58.04
2022-12-18T18:06:42.015Z,58.17
2022-12-18T18:09:16.332Z,58.24
2022-12-18T18:12:04.065Z,58.35
2022-12-18T18:14:32.171Z,58.20
2022-12-18T18:17:04.059Z,58.29
2022-12-18T18:19:33.268Z,58.29
2022-12-18T18:22:00.882Z,58.38
2022-12-18T18:24:28.167Z,58.39
2022-12-18T18:26:55.704Z,58.48
2022-12-18T18:29:25.412Z,58.50
2022-12-18T18:31:54.884Z,58.53
2022-12-18T18:34:23.977Z,58.53
2022-12-18T18:36:52.316Z,58.54
2022-12-18T18:39:20.646Z,58.66
2022-12-18T18:41:48.681Z,58.65
2022-12-18T18:44:26.380Z,58.64
2022-12-18T18:47:00.134Z,58.71
2022-12-18T18:49:29.228Z,58.72
2022-12-18T18:51:59.558Z,58.80
2022-12-18T18:54:31.303Z,58.77
2022-12-18T18:59:47.965Z,58.73
2022-12-18T19:02:19.631Z,58.76
2022-12-18T19:04:47.214Z,58.76
2022-12-18T19:07:20.325Z,58.81
2022-12-18T19:10:00.019Z,58.87
2022-12-18T19:12:51.263Z,58.80
2022-12-18T19:15:20.664Z,58.96
2022-12-18T19:17:50.068Z,59.00
2022-12-18T19:20:20.216Z,59.02
2022-12-18T19:22:55.111Z,59.15
2022-12-18T19:25:35.733Z,59.08
2022-12-18T19:28:15.349Z,59.16
2022-12-18T19:30:49.549Z,59.18
2022-12-18T19:33:41.647Z,59.18
2022-12-18T19:36:36.401Z,59.22
2022-12-18T19:39:19.236Z,59.26
2022-12-18T19:41:47.693Z,59.24
2022-12-18T19:44:18.272Z,59.31
2022-12-18T19:46:50.610Z,59.32
2022-12-18T19:49:23.230Z,59.40
2022-12-18T19:51:51.066Z,59.42
2022-12-18T19:54:18.509Z,59.36
2022-12-18T19:56:47.906Z,59.44
2022-12-18T19:59:15.410Z,59.53
2022-12-18T20:01:44.059Z,59.58
2022-12-18T20:04:11.145Z,59.67
2022-12-18T20:06:52.684Z,59.70
2022-12-18T20:09:26.300Z,59.60
2022-12-18T20:11:54.982Z,59.64
2022-12-18T20:14:23.373Z,59.74
2022-12-18T20:16:53.019Z,59.71
2022-12-18T20:19:24.888Z,59.83
2022-12-18T20:21:52.367Z,59.90
2022-12-18T20:24:20.513Z,59.93
2022-12-18T20:26:48.616Z,59.92
2022-12-18T20:29:16.043Z,59.96
2022-12-18T20:31:45.984Z,60.01
2022-12-18T20:34:15.136Z,60.08
2022-12-18T20:36:44.049Z,59.94
2022-12-18T20:39:14.420Z,60.03
2022-12-18T20:41:44.849Z,60.09
2022-12-18T20:44:22.860Z,60.09
2022-12-18T20:46:58.288Z,60.18
2022-12-18T20:49:27.469Z,60.11
2022-12-18T20:51:56.600Z,60.18
2022-12-18T20:54:26.458Z,60.15
2022-12-18T20:56:57.577Z,60.12
2022-12-18T20:59:26.202Z,60.17
2022-12-18T21:01:53.637Z,60.26
2022-12-18T21:04:22.138Z,60.15
2022-12-18T21:06:55.708Z,60.30
2022-12-18T21:09:33.265Z,60.37
2022-12-18T21:12:40.373Z,60.30
2022-12-18T21:15:17.279Z,60.29
2022-12-18T21:17:45.459Z,60.42
2022-12-18T21:20:18.267Z,60.52
2022-12-18T21:22:49.575Z,60.46
2022-12-18T21:25:18.977Z,60.46
2022-12-18T21:27:47.302Z,60.48
2022-12-18T21:30:16.472Z,60.39
2022-12-18T21:32:44.366Z,60.44
2022-12-18T21:35:11.979Z,60.58
2022-12-18T21:37:39.342Z,60.60
2022-12-18T21:40:07.887Z,60.66
2022-12-18T21:42:53.657Z,60.68
2022-12-18T21:45:20.593Z,60.68
2022-12-18T21:47:48.776Z,60.71
2022-12-18T21:50:17.500Z,60.72
2022-12-18T21:52:44.469Z,60.80
2022-12-18T21:55:13.489Z,60.83
2022-12-18T21:57:42.943Z,60.75
2022-12-18T22:00:19.029Z,60.80
2022-12-18T22:03:17.087Z,60.90
2022-12-18T22:05:38.057Z,60.86
2022-12-18T22:08:07.031Z,60.80
2022-12-18T22:10:34.914Z,60.93
2022-12-18T22:13:02.506Z,60.91
2022-12-18T22:15:31.113Z,61.00
2022-12-18T22:18:00.063Z,61.06
2022-12-18T22:20:30.388Z,61.04
2022-12-18T22:23:04.215Z,60.97
2022-12-18T22:25:33.518Z,61.08
2022-12-18T22:28:35.710Z,61.03
2022-12-18T22:31:05.369Z,61.09
2022-12-18T22:33:37.839Z,61.25
2022-12-18T22:36:07.754Z,61.20
2022-12-18T22:38:34.951Z,61.14
2022-12-18T22:41:01.972Z,61.16
2022-12-18T22:43:30.069Z,61.15
2022-12-18T22:45:59.235Z,61.18
2022-12-18T22:48:29.207Z,61.27
2022-12-18T22:50:59.513Z,61.34
2022-12-18T22:53:26.761Z,61.27
2022-12-18T22:56:04.380Z,61.36
2022-12-18T22:58:32.325Z,61.30
2022-12-18T23:01:01.858Z,61.37
2022-12-18T23:03:29.214Z,61.38
2022-12-18T23:06:07.646Z,61.43
2022-12-18T23:08:37.220Z,61.39
2022-12-18T23:11:06.504Z,61.42
2022-12-18T23:13:34.876Z,61.47
2022-12-18T23:16:06.678Z,61.43
2022-12-18T23:18:36.286Z,61.42
2022-12-18T23:21:11.253Z,61.52
2022-12-18T23:23:40.552Z,61.47
2022-12-18T23:26:15.342Z,61.57
2022-12-18T23:28:43.598Z,61.43
2022-12-18T23:31:13.240Z,61.42
2022-12-18T23:33:44.363Z,61.53
2022-12-18T23:36:16.144Z,61.52
2022-12-18T23:38:43.711Z,61.47
2022-12-18T23:41:14.585Z,61.45
2022-12-18T23:43:41.733Z,61.55
2022-12-18T23:46:17.232Z,61.56
2022-12-18T23:48:45.696Z,61.48
2022-12-18T23:51:17.375Z,61.54
2022-12-18T23:53:45.215Z,61.46
2022-12-18T23:56:14.114Z,61.53
2022-12-18T23:58:42.495Z,61.59
